createdAt,value
2019-05-16T00:00:03.875Z,6.70
2019-05-16T00:05:09.563Z,6.70
2019-05-16T00:10:15.575Z,6.60
2019-05-16T00:15:22.499Z,6.60
2019-05-16T00:20:28.380Z,6.60
2019-05-16T00:25:34.288Z,6.60
2019-05-16T00:30:39.758Z,6.60
2019-05-16T00:35:45.040Z,6.60
2019-05-16T00:40:50.409Z,6.60
2019-05-16T00:45:55.739Z,6.70
2019-05-16T00:51:01.048Z,6.80
2019-05-16T00:56:07.898Z,6.80
2019-05-16T01:01:13.375Z,6.90
2019-05-16T01:06:22.828Z,6.90
2019-05-16T01:11:27.661Z,6.90
2019-05-16T01:16:32.633Z,6.90
2019-05-16T01:21:39.160Z,6.90
2019-05-16T01:26:45.532Z,6.80
2019-05-16T01:31:50.844Z,6.80
2019-05-16T01:36:56.148Z,6.80
2019-05-16T01:42:01.456Z,6.80
2019-05-16T01:47:08.847Z,6.80
2019-05-16T01:52:14.079Z,6.80
2019-05-16T01:57:20.929Z,6.80
2019-05-16T02:02:28.902Z,6.70
2019-05-16T02:07:34.344Z,6.80
2019-05-16T02:12:39.649Z,6.80
2019-05-16T02:17:44.965Z,6.80
2019-05-16T02:22:50.255Z,6.80
2019-05-16T02:27:55.571Z,6.80
2019-05-16T02:33:01.256Z,6.80
2019-05-16T02:38:07.737Z,6.80
2019-05-16T02:43:13.024Z,6.80
2019-05-16T02:48:21.353Z,6.80
2019-05-16T02:53:25.247Z,6.70
2019-05-16T02:58:30.924Z,6.60
2019-05-16T03:03:36.779Z,6.70
2019-05-16T03:08:43.925Z,6.70
2019-05-16T03:13:51.389Z,6.80
2019-05-16T03:18:56.166Z,6.80
2019-05-16T03:24:01.486Z,6.70
2019-05-16T03:29:06.832Z,6.70
2019-05-16T03:34:16.386Z,6.80
2019-05-16T03:39:21.195Z,6.70
2019-05-16T03:44:26.057Z,6.70
2019-05-16T03:49:31.501Z,6.70
2019-05-16T03:54:37.116Z,6.70
2019-05-16T03:59:42.476Z,6.60
2019-05-16T04:04:50.874Z,6.70
2019-05-16T04:09:55.574Z,6.70
2019-05-16T04:15:01.791Z,6.70
2019-05-16T04:20:11.516Z,6.80
2019-05-16T04:25:16.965Z,6.80
2019-05-16T04:30:22.277Z,6.90
2019-05-16T04:35:27.527Z,6.90
2019-05-16T04:40:32.834Z,7.00
2019-05-16T04:45:41.130Z,7.00
2019-05-16T04:50:45.209Z,7.00
2019-05-16T04:55:51.792Z,6.90
2019-05-16T05:00:57.578Z,6.90
2019-05-16T05:06:03.106Z,6.90
2019-05-16T05:11:10.655Z,6.80
2019-05-16T05:16:15.448Z,6.80
2019-05-16T05:21:21.190Z,6.90
2019-05-16T05:26:26.612Z,6.80
2019-05-16T05:31:35.000Z,6.80
2019-05-16T05:36:40.791Z,6.80
2019-05-16T05:41:45.766Z,6.80
2019-05-16T05:46:51.335Z,6.80
2019-05-16T05:51:56.773Z,6.90
2019-05-16T05:57:02.090Z,6.90
2019-05-16T06:02:07.388Z,7.10
2019-05-16T06:07:12.680Z,7.60
2019-05-16T06:12:21.253Z,7.90
2019-05-16T06:17:26.024Z,7.70
2019-05-16T06:22:31.330Z,7.70
2019-05-16T06:27:36.622Z,7.50
2019-05-16T06:32:41.929Z,7.80
2019-05-16T06:37:49.763Z,7.80
2019-05-16T06:42:54.161Z,7.90
2019-05-16T06:48:00.706Z,8.10
2019-05-16T06:53:06.079Z,8.30
2019-05-16T06:58:11.393Z,8.20
2019-05-16T07:03:17.031Z,8.20
2019-05-16T07:08:23.427Z,8.50
2019-05-16T07:13:30.390Z,8.80
2019-05-16T07:18:35.670Z,8.90
2019-05-16T07:23:40.971Z,8.60
2019-05-16T07:28:46.261Z,8.80
2019-05-16T07:33:51.556Z,9.00
2019-05-16T07:38:56.835Z,8.70
2019-05-16T07:44:02.132Z,8.60
2019-05-16T07:49:07.436Z,8.60
2019-05-16T07:54:12.724Z,8.70
2019-05-16T07:59:18.018Z,8.50
2019-05-16T08:04:23.317Z,8.60
2019-05-16T08:09:30.659Z,8.90
2019-05-16T08:14:35.543Z,8.90
2019-05-16T08:19:40.887Z,9.00
2019-05-16T08:24:50.394Z,9.30
2019-05-16T08:29:55.242Z,9.80
2019-05-16T08:35:01.374Z,10.00
2019-05-16T08:40:07.109Z,10.20
2019-05-16T08:45:13.275Z,10.30
2019-05-16T08:50:21.650Z,10.40
2019-05-16T08:55:26.323Z,10.40
2019-05-16T09:05:42.631Z,10.30
2019-05-16T09:10:41.994Z,10.20
2019-05-16T09:11:01.892Z,10.20
2019-05-16T09:15:52.612Z,10.10
2019-05-16T09:20:58.209Z,9.40
2019-05-16T09:26:03.643Z,9.60
2019-05-16T09:31:09.827Z,10.00
2019-05-16T09:36:22.598Z,10.20
2019-05-16T09:41:22.878Z,10.20
2019-05-16T09:46:28.516Z,10.20
2019-05-16T09:51:34.361Z,9.70
2019-05-16T09:56:39.656Z,9.70
2019-05-16T10:01:47.708Z,9.60
2019-05-16T10:06:52.677Z,9.60
2019-05-16T10:12:11.948Z,9.90
2019-05-16T10:17:08.111Z,10.00
2019-05-16T10:22:17.101Z,9.90
2019-05-16T10:27:22.827Z,10.00
2019-05-16T10:32:29.303Z,10.10
2019-05-16T10:37:37.378Z,10.10
2019-05-16T10:42:42.498Z,10.00
2019-05-16T10:47:49.820Z,10.30
2019-05-16T10:53:20.237Z,10.50
2019-05-16T10:58:02.467Z,10.90
2019-05-16T11:03:08.555Z,10.70
2019-05-16T11:08:13.895Z,10.50
2019-05-16T11:13:20.394Z,10.60
2019-05-16T11:18:27.203Z,11.00
2019-05-16T11:23:34.526Z,11.20
2019-05-16T11:28:41.205Z,13.70
2019-05-16T11:33:48.210Z,10.50
2019-05-16T11:38:57.531Z,10.40
2019-05-16T11:44:00.531Z,10.10
2019-05-16T11:49:06.002Z,10.10
2019-05-16T11:54:11.315Z,10.40
2019-05-16T11:59:16.620Z,10.10
2019-05-16T12:04:23.000Z,10.20
2019-05-16T12:09:33.439Z,10.40
2019-05-16T12:14:36.739Z,10.60
2019-05-16T12:19:43.884Z,10.50
2019-05-16T12:24:49.847Z,10.80
2019-05-16T12:29:58.859Z,10.80
2019-05-16T12:35:03.727Z,11.00
2019-05-16T12:40:09.371Z,11.10
2019-05-16T12:45:15.211Z,11.10
2019-05-16T12:50:21.012Z,11.00
2019-05-16T12:55:27.149Z,11.10
2019-05-16T13:00:33.199Z,11.00
2019-05-16T13:05:39.041Z,11.10
2019-05-16T13:10:46.999Z,11.10
2019-05-16T13:15:52.289Z,11.10
2019-05-16T13:20:59.383Z,11.10
2019-05-16T13:26:07.264Z,10.90
2019-05-16T13:31:13.249Z,10.90
2019-05-16T13:36:18.605Z,10.70
2019-05-16T13:41:23.902Z,10.60
2019-05-16T13:46:30.203Z,10.50
2019-05-16T13:51:37.344Z,10.50
2019-05-16T13:56:43.549Z,10.50
2019-05-16T14:01:49.494Z,10.40
2019-05-16T14:06:58.611Z,10.20
2019-05-16T14:12:02.804Z,10.20
2019-05-16T14:17:13.798Z,10.30
2019-05-16T14:22:17.557Z,10.30
2019-05-16T14:27:26.687Z,10.20
2019-05-16T14:32:31.042Z,10.30
2019-05-16T14:37:37.873Z,10.30
2019-05-16T14:42:43.535Z,10.20
2019-05-16T14:47:50.519Z,10.20
2019-05-16T14:52:57.289Z,10.10
2019-05-16T14:58:04.287Z,10.20
2019-05-16T15:03:10.672Z,10.20
2019-05-16T15:08:18.165Z,10.30
2019-05-16T15:13:22.963Z,10.20
2019-05-16T15:18:28.275Z,10.20
2019-05-16T15:23:34.661Z,10.40
2019-05-16T15:28:39.951Z,10.30
2019-05-16T15:33:47.458Z,10.30
2019-05-16T15:38:52.248Z,10.20
2019-05-16T15:43:59.290Z,10.10
2019-05-16T15:49:09.883Z,10.10
2019-05-16T15:54:17.868Z,10.10
2019-05-16T15:59:22.416Z,10.10
2019-05-16T16:04:28.013Z,10.20
2019-05-16T16:09:33.324Z,10.20
2019-05-16T16:14:38.722Z,10.10
2019-05-16T16:19:44.036Z,10.00
2019-05-16T16:24:50.407Z,9.90
2019-05-16T16:29:55.922Z,9.90
2019-05-16T16:35:01.327Z,10.00
2019-05-16T16:40:11.409Z,10.00
2019-05-16T16:45:16.800Z,9.90
2019-05-16T16:50:26.548Z,9.80
2019-05-16T16:55:31.687Z,9.60
2019-05-16T17:00:37.891Z,9.60
2019-05-16T17:05:43.517Z,9.60
2019-05-16T17:10:48.803Z,9.50
2019-05-16T17:15:56.682Z,9.50
2019-05-16T17:21:01.080Z,9.50
2019-05-16T17:26:07.224Z,9.50
2019-05-16T17:31:12.982Z,9.50
2019-05-16T17:36:18.279Z,9.50
2019-05-16T17:41:23.638Z,9.50
2019-05-16T17:46:36.802Z,9.50
2019-05-16T17:51:36.726Z,9.50
2019-05-16T17:56:42.583Z,9.40
2019-05-16T18:01:48.169Z,9.40
2019-05-16T18:06:53.534Z,9.40
2019-05-16T18:11:59.429Z,9.30
2019-05-16T18:17:07.280Z,9.30
2019-05-16T18:22:14.277Z,9.30
2019-05-16T18:27:19.586Z,9.30
2019-05-16T18:32:26.593Z,9.20
2019-05-16T18:37:33.434Z,9.10
2019-05-16T18:42:38.912Z,9.00
2019-05-16T18:47:46.809Z,8.90
2019-05-16T18:52:51.315Z,8.80
2019-05-16T18:57:57.572Z,8.80
2019-05-16T19:03:03.079Z,8.70
2019-05-16T19:08:09.484Z,8.70
2019-05-16T19:13:16.819Z,8.60
2019-05-16T19:18:22.281Z,8.60
2019-05-16T19:23:27.706Z,8.60
2019-05-16T19:28:33.070Z,8.60
2019-05-16T19:33:38.678Z,8.60
2019-05-16T19:38:46.442Z,8.50
2019-05-16T19:43:51.659Z,8.60
2019-05-16T19:48:57.256Z,8.60
2019-05-16T19:54:02.574Z,8.50
2019-05-16T19:59:07.869Z,8.60
2019-05-16T20:04:16.074Z,8.60
2019-05-16T20:09:20.412Z,8.50
2019-05-16T20:14:27.285Z,8.50
2019-05-16T20:19:33.375Z,8.60
2019-05-16T20:24:38.899Z,8.60
2019-05-16T20:29:44.191Z,8.60
2019-05-16T20:34:49.975Z,8.60
2019-05-16T20:39:55.283Z,8.60
2019-05-16T20:45:02.267Z,8.60
2019-05-16T20:50:08.948Z,8.60
2019-05-16T20:55:14.455Z,8.60
2019-05-16T21:00:20.194Z,8.50
2019-05-16T21:05:27.567Z,8.50
2019-05-16T21:10:33.040Z,8.60
2019-05-16T21:15:38.414Z,8.50
2019-05-16T21:20:46.814Z,8.50
2019-05-16T21:25:51.019Z,8.50
2019-05-16T21:30:56.945Z,8.50
2019-05-16T21:36:02.505Z,8.40
2019-05-16T21:41:08.039Z,8.30
2019-05-16T21:46:13.885Z,8.40
2019-05-16T21:51:19.726Z,8.40
2019-05-16T21:56:26.598Z,8.50
2019-05-16T22:01:32.447Z,8.50
2019-05-16T22:06:39.413Z,8.40
2019-05-16T22:11:46.528Z,8.50
2019-05-16T22:16:52.015Z,8.40
2019-05-16T22:21:58.535Z,8.50
2019-05-16T22:27:06.706Z,8.50
2019-05-16T22:32:11.162Z,8.50
2019-05-16T22:37:17.146Z,8.40
2019-05-16T22:42:22.916Z,8.40
2019-05-16T22:47:28.247Z,8.30
2019-05-16T22:52:33.755Z,8.20
2019-05-16T22:57:39.023Z,8.20
2019-05-16T23:02:44.775Z,8.10
2019-05-16T23:08:02.052Z,7.90
2019-05-16T23:12:57.398Z,7.70
2019-05-16T23:18:02.904Z,7.60
2019-05-16T23:23:08.251Z,7.50
2019-05-16T23:28:13.857Z,7.40
2019-05-16T23:33:19.188Z,7.40
2019-05-16T23:38:24.807Z,7.40
2019-05-16T23:43:30.109Z,7.40
2019-05-16T23:48:36.496Z,7.30
2019-05-16T23:53:42.507Z,7.30
2019-05-16T23:58:48.061Z,7.40
